sensor_id;sensor_type;location;lat;lon;timestamp;temperature;humidity
3156;DHT22;1588;50.892;7.082;2024-03-25T00:03:44;6.30;99.90
3156;DHT22;1588;50.892;7.082;2024-03-25T00:08:46;6.20;99.90
3156;DHT22;1588;50.892;7.082;2024-03-25T00:13:50;6.10;99.90
3156;DHT22;1588;50.892;7.082;2024-03-25T00:18:52;6.10;99.90
3156;DHT22;1588;50.892;7.082;2024-03-25T00:23:55;6.10;99.90
3156;DHT22;1588;50.892;7.082;2024-03-25T00:28:59;6.10;99.90
3156;DHT22;1588;50.892;7.082;2024-03-25T00:34:01;6.00;99.90
3156;DHT22;1588;50.892;7.082;2024-03-25T00:39:03;5.90;99.90
3156;DHT22;1588;50.892;7.082;2024-03-25T00:44:08;5.80;99.90
3156;DHT22;1588;50.892;7.082;2024-03-25T00:49:11;5.70;99.90
3156;DHT22;1588;50.892;7.082;2024-03-25T00:54:13;5.70;99.90
3156;DHT22;1588;50.892;7.082;2024-03-25T00:59:17;5.60;99.90
3156;DHT22;1588;50.892;7.082;2024-03-25T01:04:19;5.60;99.90
3156;DHT22;1588;50.892;7.082;2024-03-25T01:09:22;5.60;99.90
3156;DHT22;1588;50.892;7.082;2024-03-25T01:14:27;5.60;99.90
3156;DHT22;1588;50.892;7.082;2024-03-25T01:19:29;5.70;99.90
3156;DHT22;1588;50.892;7.082;2024-03-25T01:24:32;5.70;99.90
3156;DHT22;1588;50.892;7.082;2024-03-25T01:29:35;5.70;99.90
3156;DHT22;1588;50.892;7.082;2024-03-25T01:34:38;5.70;99.90
3156;DHT22;1588;50.892;7.082;2024-03-25T01:39:41;5.80;99.90
3156;DHT22;1588;50.892;7.082;2024-03-25T01:44:44;5.80;99.90
3156;DHT22;1588;50.892;7.082;2024-03-25T01:49:48;5.80;99.90
3156;DHT22;1588;50.892;7.082;2024-03-25T01:54:54;5.90;99.90
3156;DHT22;1588;50.892;7.082;2024-03-25T01:59:58;5.90;99.90
3156;DHT22;1588;50.892;7.082;2024-03-25T02:05:01;5.80;99.90
3156;DHT22;1588;50.892;7.082;2024-03-25T02:10:05;5.70;99.90
3156;DHT22;1588;50.892;7.082;2024-03-25T02:15:12;5.70;99.90
3156;DHT22;1588;50.892;7.082;2024-03-25T02:20:15;5.60;99.90
3156;DHT22;1588;50.892;7.082;2024-03-25T02:25:17;5.60;99.90
3156;DHT22;1588;50.892;7.082;2024-03-25T02:30:21;5.60;99.90
3156;DHT22;1588;50.892;7.082;2024-03-25T02:35:25;5.70;99.90
3156;DHT22;1588;50.892;7.082;2024-03-25T02:40:28;5.70;99.90
3156;DHT22;1588;50.892;7.082;2024-03-25T02:45:32;5.70;99.90
3156;DHT22;1588;50.892;7.082;2024-03-25T02:50:35;5.70;99.90
3156;DHT22;1588;50.892;7.082;2024-03-25T02:55:37;5.70;99.90
3156;DHT22;1588;50.892;7.082;2024-03-25T03:00:40;5.60;99.90
3156;DHT22;1588;50.892;7.082;2024-03-25T03:05:43;5.50;99.90
3156;DHT22;1588;50.892;7.082;2024-03-25T03:10:45;5.50;99.90
3156;DHT22;1588;50.892;7.082;2024-03-25T03:15:49;5.50;99.90
3156;DHT22;1588;50.892;7.082;2024-03-25T03:20:51;5.50;99.90
3156;DHT22;1588;50.892;7.082;2024-03-25T03:25:56;5.50;99.90
3156;DHT22;1588;50.892;7.082;2024-03-25T03:31:02;5.50;99.90
3156;DHT22;1588;50.892;7.082;2024-03-25T03:36:05;5.50;99.90
3156;DHT22;1588;50.892;7.082;2024-03-25T03:41:07;5.40;99.90
3156;DHT22;1588;50.892;7.082;2024-03-25T03:46:11;5.40;99.90
3156;DHT22;1588;50.892;7.082;2024-03-25T03:51:13;5.30;99.90
3156;DHT22;1588;50.892;7.082;2024-03-25T03:56:15;5.30;99.90
3156;DHT22;1588;50.892;7.082;2024-03-25T04:01:19;5.30;99.90
3156;DHT22;1588;50.892;7.082;2024-03-25T04:06:22;5.30;99.90
3156;DHT22;1588;50.892;7.082;2024-03-25T04:11:24;5.30;99.90
3156;DHT22;1588;50.892;7.082;2024-03-25T04:16:28;5.30;99.90
3156;DHT22;1588;50.892;7.082;2024-03-25T04:21:31;5.30;99.90
3156;DHT22;1588;50.892;7.082;2024-03-25T04:26:33;5.30;99.90
3156;DHT22;1588;50.892;7.082;2024-03-25T04:31:37;5.10;99.90
3156;DHT22;1588;50.892;7.082;2024-03-25T04:36:39;5.00;99.90
3156;DHT22;1588;50.892;7.082;2024-03-25T04:41:42;4.80;99.90
3156;DHT22;1588;50.892;7.082;2024-03-25T04:46:44;4.60;99.90
3156;DHT22;1588;50.892;7.082;2024-03-25T04:51:46;4.50;99.90
3156;DHT22;1588;50.892;7.082;2024-03-25T04:56:47;4.30;99.90
3156;DHT22;1588;50.892;7.082;2024-03-25T05:01:50;4.10;99.90
3156;DHT22;1588;50.892;7.082;2024-03-25T05:06:51;3.80;99.90
3156;DHT22;1588;50.892;7.082;2024-03-25T05:11:53;3.70;99.90
3156;DHT22;1588;50.892;7.082;2024-03-25T05:16:56;3.70;99.90
3156;DHT22;1588;50.892;7.082;2024-03-25T05:21:57;3.70;99.90
3156;DHT22;1588;50.892;7.082;2024-03-25T05:26:58;3.60;99.90
3156;DHT22;1588;50.892;7.082;2024-03-25T05:32:01;3.50;99.90
3156;DHT22;1588;50.892;7.082;2024-03-25T05:37:03;3.40;99.90
3156;DHT22;1588;50.892;7.082;2024-03-25T05:42:05;3.40;99.90
3156;DHT22;1588;50.892;7.082;2024-03-25T05:47:07;3.40;99.90
3156;DHT22;1588;50.892;7.082;2024-03-25T05:52:08;3.40;99.90
3156;DHT22;1588;50.892;7.082;2024-03-25T05:57:10;3.40;99.90
3156;DHT22;1588;50.892;7.082;2024-03-25T06:02:13;3.40;99.90
3156;DHT22;1588;50.892;7.082;2024-03-25T06:07:14;3.50;99.90
3156;DHT22;1588;50.892;7.082;2024-03-25T06:12:16;3.40;99.90
3156;DHT22;1588;50.892;7.082;2024-03-25T06:17:18;3.40;99.90
3156;DHT22;1588;50.892;7.082;2024-03-25T06:22:20;3.60;99.90
3156;DHT22;1588;50.892;7.082;2024-03-25T06:27:21;3.80;99.90
3156;DHT22;1588;50.892;7.082;2024-03-25T06:32:24;4.00;99.90
3156;DHT22;1588;50.892;7.082;2024-03-25T06:37:49;4.20;99.90
3156;DHT22;1588;50.892;7.082;2024-03-25T06:42:50;4.40;99.90
3156;DHT22;1588;50.892;7.082;2024-03-25T06:47:53;4.50;99.90
3156;DHT22;1588;50.892;7.082;2024-03-25T06:52:55;4.80;99.90
3156;DHT22;1588;50.892;7.082;2024-03-25T06:57:56;4.90;99.90
3156;DHT22;1588;50.892;7.082;2024-03-25T07:02:59;5.10;99.90
3156;DHT22;1588;50.892;7.082;2024-03-25T07:08:00;5.40;99.90
3156;DHT22;1588;50.892;7.082;2024-03-25T07:13:02;5.70;99.90
3156;DHT22;1588;50.892;7.082;2024-03-25T07:18:05;5.90;99.90
3156;DHT22;1588;50.892;7.082;2024-03-25T07:23:11;6.60;99.90
3156;DHT22;1588;50.892;7.082;2024-03-25T07:28:12;9.80;99.90
3156;DHT22;1588;50.892;7.082;2024-03-25T07:33:15;12.70;99.90
3156;DHT22;1588;50.892;7.082;2024-03-25T07:38:19;14.80;99.90
3156;DHT22;1588;50.892;7.082;2024-03-25T07:43:24;16.10;99.90
3156;DHT22;1588;50.892;7.082;2024-03-25T07:48:27;17.00;99.90
3156;DHT22;1588;50.892;7.082;2024-03-25T07:53:28;17.40;99.90
3156;DHT22;1588;50.892;7.082;2024-03-25T07:58:30;18.10;99.90
3156;DHT22;1588;50.892;7.082;2024-03-25T08:03:33;18.60;99.90
3156;DHT22;1588;50.892;7.082;2024-03-25T08:08:34;19.20;99.90
3156;DHT22;1588;50.892;7.082;2024-03-25T08:13:41;19.60;99.90
3156;DHT22;1588;50.892;7.082;2024-03-25T08:18:44;19.80;99.90
3156;DHT22;1588;50.892;7.082;2024-03-25T08:23:46;19.50;99.90
3156;DHT22;1588;50.892;7.082;2024-03-25T08:28:47;17.40;99.90
3156;DHT22;1588;50.892;7.082;2024-03-25T08:33:50;17.30;99.90
3156;DHT22;1588;50.892;7.082;2024-03-25T08:38:52;17.50;99.90
3156;DHT22;1588;50.892;7.082;2024-03-25T08:43:53;16.40;99.90
3156;DHT22;1588;50.892;7.082;2024-03-25T08:48:56;15.20;99.90
3156;DHT22;1588;50.892;7.082;2024-03-25T08:53:57;16.70;99.90
3156;DHT22;1588;50.892;7.082;2024-03-25T08:58:58;17.20;99.90
3156;DHT22;1588;50.892;7.082;2024-03-25T09:04:01;18.10;99.90
3156;DHT22;1588;50.892;7.082;2024-03-25T09:09:02;18.20;99.90
3156;DHT22;1588;50.892;7.082;2024-03-25T09:14:22;17.60;99.90
3156;DHT22;1588;50.892;7.082;2024-03-25T09:19:26;17.90;99.90
3156;DHT22;1588;50.892;7.082;2024-03-25T09:24:27;18.30;99.90
3156;DHT22;1588;50.892;7.082;2024-03-25T09:29:29;18.60;99.90
3156;DHT22;1588;50.892;7.082;2024-03-25T09:34:33;19.00;99.90
3156;DHT22;1588;50.892;7.082;2024-03-25T09:39:34;19.60;99.90
3156;DHT22;1588;50.892;7.082;2024-03-25T09:44:36;18.20;99.90
3156;DHT22;1588;50.892;7.082;2024-03-25T09:49:40;16.90;99.90
3156;DHT22;1588;50.892;7.082;2024-03-25T09:54:43;18.10;99.90
3156;DHT22;1588;50.892;7.082;2024-03-25T09:59:44;18.60;99.90
3156;DHT22;1588;50.892;7.082;2024-03-25T10:04:48;18.60;99.90
3156;DHT22;1588;50.892;7.082;2024-03-25T10:09:50;18.60;99.90
3156;DHT22;1588;50.892;7.082;2024-03-25T10:14:52;18.00;99.90
3156;DHT22;1588;50.892;7.082;2024-03-25T10:19:55;18.20;99.90
3156;DHT22;1588;50.892;7.082;2024-03-25T10:25:00;18.50;99.90
3156;DHT22;1588;50.892;7.082;2024-03-25T10:30:01;18.20;99.90
3156;DHT22;1588;50.892;7.082;2024-03-25T10:35:05;18.60;99.90
3156;DHT22;1588;50.892;7.082;2024-03-25T10:40:08;18.90;99.90
3156;DHT22;1588;50.892;7.082;2024-03-25T10:45:12;18.30;99.90
3156;DHT22;1588;50.892;7.082;2024-03-25T10:50:16;18.40;99.90
3156;DHT22;1588;50.892;7.082;2024-03-25T10:55:24;18.10;99.90
3156;DHT22;1588;50.892;7.082;2024-03-25T11:00:25;18.40;99.90
3156;DHT22;1588;50.892;7.082;2024-03-25T11:05:28;18.50;99.90
3156;DHT22;1588;50.892;7.082;2024-03-25T11:10:30;17.80;99.90
3156;DHT22;1588;50.892;7.082;2024-03-25T11:15:40;17.60;98.50
3156;DHT22;1588;50.892;7.082;2024-03-25T11:20:44;17.60;99.90
3156;DHT22;1588;50.892;7.082;2024-03-25T11:25:55;17.70;99.90
3156;DHT22;1588;50.892;7.082;2024-03-25T11:30:57;17.50;99.90
3156;DHT22;1588;50.892;7.082;2024-03-25T11:35:59;16.50;98.00
3156;DHT22;1588;50.892;7.082;2024-03-25T11:41:01;16.40;99.90
3156;DHT22;1588;50.892;7.082;2024-03-25T11:46:03;16.60;99.70
3156;DHT22;1588;50.892;7.082;2024-03-25T11:51:13;16.50;99.90
3156;DHT22;1588;50.892;7.082;2024-03-25T11:56:14;16.60;99.90
3156;DHT22;1588;50.892;7.082;2024-03-25T12:01:15;16.90;99.90
3156;DHT22;1588;50.892;7.082;2024-03-25T12:06:18;16.80;99.90
3156;DHT22;1588;50.892;7.082;2024-03-25T12:11:20;16.20;99.90
3156;DHT22;1588;50.892;7.082;2024-03-25T12:16:22;16.00;99.90
3156;DHT22;1588;50.892;7.082;2024-03-25T12:21:26;16.20;99.90
3156;DHT22;1588;50.892;7.082;2024-03-25T12:26:27;16.00;99.90
3156;DHT22;1588;50.892;7.082;2024-03-25T12:31:29;15.40;99.80
3156;DHT22;1588;50.892;7.082;2024-03-25T12:36:35;15.20;99.90
3156;DHT22;1588;50.892;7.082;2024-03-25T12:41:37;15.20;99.90
3156;DHT22;1588;50.892;7.082;2024-03-25T12:46:39;15.00;98.90
3156;DHT22;1588;50.892;7.082;2024-03-25T12:51:42;14.80;99.90
3156;DHT22;1588;50.892;7.082;2024-03-25T12:56:43;14.70;99.90
3156;DHT22;1588;50.892;7.082;2024-03-25T13:01:44;14.80;99.90
3156;DHT22;1588;50.892;7.082;2024-03-25T13:06:47;14.70;99.90
3156;DHT22;1588;50.892;7.082;2024-03-25T13:11:49;14.50;99.90
3156;DHT22;1588;50.892;7.082;2024-03-25T13:16:50;14.50;99.90
3156;DHT22;1588;50.892;7.082;2024-03-25T13:21:55;14.50;99.90
3156;DHT22;1588;50.892;7.082;2024-03-25T13:26:56;14.50;99.90
3156;DHT22;1588;50.892;7.082;2024-03-25T13:31:58;14.50;99.40
3156;DHT22;1588;50.892;7.082;2024-03-25T13:37:01;14.10;99.90
3156;DHT22;1588;50.892;7.082;2024-03-25T13:42:02;13.80;99.90
3156;DHT22;1588;50.892;7.082;2024-03-25T13:47:05;14.00;99.90
3156;DHT22;1588;50.892;7.082;2024-03-25T13:52:11;13.80;99.90
3156;DHT22;1588;50.892;7.082;2024-03-25T13:57:12;13.80;99.90
3156;DHT22;1588;50.892;7.082;2024-03-25T14:02:14;13.90;99.90
3156;DHT22;1588;50.892;7.082;2024-03-25T14:07:17;13.70;99.70
3156;DHT22;1588;50.892;7.082;2024-03-25T14:12:19;13.70;99.90
3156;DHT22;1588;50.892;7.082;2024-03-25T14:17:20;13.60;98.50
3156;DHT22;1588;50.892;7.082;2024-03-25T14:22:23;13.30;99.90
3156;DHT22;1588;50.892;7.082;2024-03-25T14:27:24;13.50;99.90
3156;DHT22;1588;50.892;7.082;2024-03-25T14:32:26;13.30;99.90
3156;DHT22;1588;50.892;7.082;2024-03-25T14:37:29;13.50;99.60
3156;DHT22;1588;50.892;7.082;2024-03-25T14:42:52;13.50;99.00
3156;DHT22;1588;50.892;7.082;2024-03-25T14:48:09;13.40;99.90
3156;DHT22;1588;50.892;7.082;2024-03-25T14:53:12;13.10;99.90
3156;DHT22;1588;50.892;7.082;2024-03-25T14:58:13;13.10;99.80
3156;DHT22;1588;50.892;7.082;2024-03-25T15:03:15;13.10;99.90
3156;DHT22;1588;50.892;7.082;2024-03-25T15:08:18;13.20;99.90
3156;DHT22;1588;50.892;7.082;2024-03-25T15:13:19;13.00;99.90
3156;DHT22;1588;50.892;7.082;2024-03-25T15:18:20;12.90;99.90
3156;DHT22;1588;50.892;7.082;2024-03-25T15:23:23;12.90;99.90
3156;DHT22;1588;50.892;7.082;2024-03-25T15:28:25;12.80;99.90
3156;DHT22;1588;50.892;7.082;2024-03-25T15:33:26;12.90;99.90
3156;DHT22;1588;50.892;7.082;2024-03-25T15:38:29;12.80;99.90
3156;DHT22;1588;50.892;7.082;2024-03-25T15:43:30;12.90;99.90
3156;DHT22;1588;50.892;7.082;2024-03-25T15:48:32;12.90;99.90
3156;DHT22;1588;50.892;7.082;2024-03-25T15:53:35;12.90;99.90
3156;DHT22;1588;50.892;7.082;2024-03-25T15:58:37;12.80;99.90
3156;DHT22;1588;50.892;7.082;2024-03-25T16:03:38;12.80;99.90
3156;DHT22;1588;50.892;7.082;2024-03-25T16:08:42;12.70;99.50
3156;DHT22;1588;50.892;7.082;2024-03-25T16:13:43;12.70;99.90
3156;DHT22;1588;50.892;7.082;2024-03-25T16:18:45;12.50;99.90
3156;DHT22;1588;50.892;7.082;2024-03-25T16:23:48;12.50;99.90
3156;DHT22;1588;50.892;7.082;2024-03-25T16:29:05;12.50;99.90
3156;DHT22;1588;50.892;7.082;2024-03-25T16:34:17;12.50;99.80
3156;DHT22;1588;50.892;7.082;2024-03-25T16:39:33;12.40;99.10
3156;DHT22;1588;50.892;7.082;2024-03-25T16:45:03;12.20;99.70
3156;DHT22;1588;50.892;7.082;2024-03-25T16:50:05;12.10;99.90
3156;DHT22;1588;50.892;7.082;2024-03-25T16:55:08;12.00;99.90
3156;DHT22;1588;50.892;7.082;2024-03-25T17:00:10;11.80;99.90
3156;DHT22;1588;50.892;7.082;2024-03-25T17:05:13;11.60;99.90
3156;DHT22;1588;50.892;7.082;2024-03-25T17:10:15;11.50;99.90
3156;DHT22;1588;50.892;7.082;2024-03-25T17:15:17;11.20;99.90
3156;DHT22;1588;50.892;7.082;2024-03-25T17:20:18;11.20;99.90
3156;DHT22;1588;50.892;7.082;2024-03-25T17:25:21;11.10;99.90
3156;DHT22;1588;50.892;7.082;2024-03-25T17:30:22;10.90;99.90
3156;DHT22;1588;50.892;7.082;2024-03-25T17:35:24;10.70;99.90
3156;DHT22;1588;50.892;7.082;2024-03-25T17:40:26;10.60;99.90
3156;DHT22;1588;50.892;7.082;2024-03-25T17:45:28;10.40;99.90
3156;DHT22;1588;50.892;7.082;2024-03-25T17:50:29;10.30;99.90
3156;DHT22;1588;50.892;7.082;2024-03-25T17:55:32;10.10;99.90
3156;DHT22;1588;50.892;7.082;2024-03-25T18:00:33;10.00;99.90
3156;DHT22;1588;50.892;7.082;2024-03-25T18:05:34;9.90;99.90
3156;DHT22;1588;50.892;7.082;2024-03-25T18:10:37;9.80;99.90
3156;DHT22;1588;50.892;7.082;2024-03-25T18:15:45;9.70;99.90
3156;DHT22;1588;50.892;7.082;2024-03-25T18:20:46;9.80;99.90
3156;DHT22;1588;50.892;7.082;2024-03-25T18:25:49;9.70;99.90
3156;DHT22;1588;50.892;7.082;2024-03-25T18:30:54;9.70;99.90
3156;DHT22;1588;50.892;7.082;2024-03-25T18:35:59;9.60;99.90
3156;DHT22;1588;50.892;7.082;2024-03-25T18:41:02;9.50;99.90
3156;DHT22;1588;50.892;7.082;2024-03-25T18:46:04;9.40;99.90
3156;DHT22;1588;50.892;7.082;2024-03-25T18:51:05;9.20;99.90
3156;DHT22;1588;50.892;7.082;2024-03-25T18:56:08;9.20;99.90
3156;DHT22;1588;50.892;7.082;2024-03-25T19:01:09;9.20;99.90
3156;DHT22;1588;50.892;7.082;2024-03-25T19:06:10;9.10;99.90
3156;DHT22;1588;50.892;7.082;2024-03-25T19:11:13;9.00;99.90
3156;DHT22;1588;50.892;7.082;2024-03-25T19:16:14;8.90;99.90
3156;DHT22;1588;50.892;7.082;2024-03-25T19:21:16;8.90;99.90
3156;DHT22;1588;50.892;7.082;2024-03-25T19:26:18;8.90;99.90
3156;DHT22;1588;50.892;7.082;2024-03-25T19:31:20;8.80;99.90
3156;DHT22;1588;50.892;7.082;2024-03-25T19:36:21;8.90;99.90
3156;DHT22;1588;50.892;7.082;2024-03-25T19:41:24;9.00;99.90
3156;DHT22;1588;50.892;7.082;2024-03-25T19:46:25;8.80;99.90
3156;DHT22;1588;50.892;7.082;2024-03-25T19:51:26;8.80;99.90
3156;DHT22;1588;50.892;7.082;2024-03-25T19:56:29;8.60;99.90
3156;DHT22;1588;50.892;7.082;2024-03-25T20:01:31;8.60;99.90
3156;DHT22;1588;50.892;7.082;2024-03-25T20:06:32;8.40;99.90
3156;DHT22;1588;50.892;7.082;2024-03-25T20:11:35;8.30;99.90
3156;DHT22;1588;50.892;7.082;2024-03-25T20:16:36;8.40;99.90
3156;DHT22;1588;50.892;7.082;2024-03-25T20:21:38;8.30;99.90
3156;DHT22;1588;50.892;7.082;2024-03-25T20:26:40;8.00;99.90
3156;DHT22;1588;50.892;7.082;2024-03-25T20:31:41;7.90;99.90
3156;DHT22;1588;50.892;7.082;2024-03-25T20:36:43;7.70;99.90
3156;DHT22;1588;50.892;7.082;2024-03-25T20:41:45;7.60;99.90
3156;DHT22;1588;50.892;7.082;2024-03-25T20:46:47;7.60;99.90
3156;DHT22;1588;50.892;7.082;2024-03-25T20:51:48;7.50;99.90
3156;DHT22;1588;50.892;7.082;2024-03-25T20:56:51;7.30;99.90
3156;DHT22;1588;50.892;7.082;2024-03-25T21:01:52;7.30;99.90
3156;DHT22;1588;50.892;7.082;2024-03-25T21:06:53;7.20;99.90
3156;DHT22;1588;50.892;7.082;2024-03-25T21:11:56;7.20;99.90
3156;DHT22;1588;50.892;7.082;2024-03-25T21:16:57;7.10;99.90
3156;DHT22;1588;50.892;7.082;2024-03-25T21:21:58;7.00;99.90
3156;DHT22;1588;50.892;7.082;2024-03-25T21:27:01;7.00;99.90
3156;DHT22;1588;50.892;7.082;2024-03-25T21:32:02;6.90;99.90
3156;DHT22;1588;50.892;7.082;2024-03-25T21:37:04;6.80;99.90
3156;DHT22;1588;50.892;7.082;2024-03-25T21:42:07;6.60;99.90
3156;DHT22;1588;50.892;7.082;2024-03-25T21:47:08;6.50;99.90
3156;DHT22;1588;50.892;7.082;2024-03-25T21:52:09;6.30;99.90
3156;DHT22;1588;50.892;7.082;2024-03-25T21:57:12;6.30;99.90
3156;DHT22;1588;50.892;7.082;2024-03-25T22:02:13;6.40;99.90
3156;DHT22;1588;50.892;7.082;2024-03-25T22:07:15;6.50;99.90
3156;DHT22;1588;50.892;7.082;2024-03-25T22:12:17;6.50;99.90
3156;DHT22;1588;50.892;7.082;2024-03-25T22:17:19;6.70;99.90
3156;DHT22;1588;50.892;7.082;2024-03-25T22:22:20;6.70;99.90
3156;DHT22;1588;50.892;7.082;2024-03-25T22:27:23;6.70;99.90
3156;DHT22;1588;50.892;7.082;2024-03-25T22:32:24;6.60;99.90
3156;DHT22;1588;50.892;7.082;2024-03-25T22:37:26;6.70;99.90
3156;DHT22;1588;50.892;7.082;2024-03-25T22:42:28;6.50;99.90
3156;DHT22;1588;50.892;7.082;2024-03-25T22:47:30;6.60;99.90
3156;DHT22;1588;50.892;7.082;2024-03-25T22:52:31;6.50;99.90
3156;DHT22;1588;50.892;7.082;2024-03-25T22:57:34;6.40;99.90
3156;DHT22;1588;50.892;7.082;2024-03-25T23:02:35;6.40;99.90
3156;DHT22;1588;50.892;7.082;2024-03-25T23:07:36;6.20;99.90
3156;DHT22;1588;50.892;7.082;2024-03-25T23:12:39;6.10;99.90
3156;DHT22;1588;50.892;7.082;2024-03-25T23:17:40;6.00;99.90
3156;DHT22;1588;50.892;7.082;2024-03-25T23:22:42;5.90;99.90
3156;DHT22;1588;50.892;7.082;2024-03-25T23:27:44;5.80;99.90
3156;DHT22;1588;50.892;7.082;2024-03-25T23:32:46;5.90;99.90
3156;DHT22;1588;50.892;7.082;2024-03-25T23:37:47;5.90;99.90
3156;DHT22;1588;50.892;7.082;2024-03-25T23:42:50;5.80;99.90
3156;DHT22;1588;50.892;7.082;2024-03-25T23:47:51;5.90;99.90
3156;DHT22;1588;50.892;7.082;2024-03-25T23:52:52;6.00;99.90
3156;DHT22;1588;50.892;7.082;2024-03-25T23:57:55;6.10;99.90
